sensor_id;sensor_type;location;lat;lon;timestamp;P1;durP1;ratioP1;P2;durP2;ratioP2
16577;SDS011;8401;52.528;13.340;2022-11-23T00:00:34;39.53;;;18.93;;
16577;SDS011;8401;52.528;13.340;2022-11-23T00:03:01;43.57;;;20.33;;
16577;SDS011;8401;52.528;13.340;2022-11-23T00:05:27;41.63;;;20.57;;
16577;SDS011;8401;52.528;13.340;2022-11-23T00:07:54;37.80;;;18.83;;
16577;SDS011;8401;52.528;13.340;2022-11-23T00:10:20;41.43;;;20.20;;
16577;SDS011;8401;52.528;13.340;2022-11-23T00:12:45;40.87;;;18.93;;
16577;SDS011;8401;52.528;13.340;2022-11-23T00:15:11;42.83;;;20.63;;
16577;SDS011;8401;52.528;13.340;2022-11-23T00:17:38;44.57;;;20.47;;
16577;SDS011;8401;52.528;13.340;2022-11-23T00:20:05;40.90;;;20.20;;
16577;SDS011;8401;52.528;13.340;2022-11-23T00:22:32;38.27;;;19.80;;
16577;SDS011;8401;52.528;13.340;2022-11-23T00:24:58;40.70;;;19.83;;
16577;SDS011;8401;52.528;13.340;2022-11-23T00:27:24;45.33;;;20.07;;
16577;SDS011;8401;52.528;13.340;2022-11-23T00:29:49;44.27;;;22.07;;
16577;SDS011;8401;52.528;13.340;2022-11-23T00:32:15;39.20;;;19.50;;
16577;SDS011;8401;52.528;13.340;2022-11-23T00:34:41;40.27;;;19.33;;
16577;SDS011;8401;52.528;13.340;2022-11-23T00:37:06;36.47;;;19.90;;
16577;SDS011;8401;52.528;13.340;2022-11-23T00:39:32;39.40;;;18.27;;
16577;SDS011;8401;52.528;13.340;2022-11-23T00:41:58;36.77;;;18.57;;
16577;SDS011;8401;52.528;13.340;2022-11-23T00:44:23;38.33;;;20.17;;
16577;SDS011;8401;52.528;13.340;2022-11-23T00:46:49;38.97;;;19.60;;
16577;SDS011;8401;52.528;13.340;2022-11-23T00:49:15;40.37;;;19.47;;
16577;SDS011;8401;52.528;13.340;2022-11-23T00:51:41;39.97;;;19.13;;
16577;SDS011;8401;52.528;13.340;2022-11-23T00:54:06;37.77;;;18.50;;
16577;SDS011;8401;52.528;13.340;2022-11-23T00:56:33;39.03;;;20.53;;
16577;SDS011;8401;52.528;13.340;2022-11-23T00:58:59;33.50;;;16.23;;
16577;SDS011;8401;52.528;13.340;2022-11-23T01:01:30;37.13;;;17.97;;
16577;SDS011;8401;52.528;13.340;2022-11-23T01:03:59;35.23;;;17.83;;
16577;SDS011;8401;52.528;13.340;2022-11-23T01:06:26;36.43;;;19.47;;
16577;SDS011;8401;52.528;13.340;2022-11-23T01:08:54;38.70;;;18.57;;
16577;SDS011;8401;52.528;13.340;2022-11-23T01:11:22;36.47;;;18.70;;
16577;SDS011;8401;52.528;13.340;2022-11-23T01:13:49;42.17;;;20.33;;
16577;SDS011;8401;52.528;13.340;2022-11-23T01:16:17;39.80;;;20.47;;
16577;SDS011;8401;52.528;13.340;2022-11-23T01:18:44;39.77;;;19.23;;
16577;SDS011;8401;52.528;13.340;2022-11-23T01:21:10;36.50;;;19.17;;
16577;SDS011;8401;52.528;13.340;2022-11-23T01:23:36;41.23;;;19.73;;
16577;SDS011;8401;52.528;13.340;2022-11-23T01:26:05;37.37;;;18.03;;
16577;SDS011;8401;52.528;13.340;2022-11-23T01:28:32;33.10;;;18.47;;
16577;SDS011;8401;52.528;13.340;2022-11-23T01:31:06;38.77;;;19.40;;
16577;SDS011;8401;52.528;13.340;2022-11-23T01:33:55;34.23;;;18.80;;
16577;SDS011;8401;52.528;13.340;2022-11-23T01:36:23;41.43;;;19.90;;
16577;SDS011;8401;52.528;13.340;2022-11-23T01:38:50;38.70;;;18.70;;
16577;SDS011;8401;52.528;13.340;2022-11-23T01:41:18;38.40;;;19.33;;
16577;SDS011;8401;52.528;13.340;2022-11-23T01:43:48;35.77;;;19.70;;
16577;SDS011;8401;52.528;13.340;2022-11-23T01:46:14;36.73;;;18.30;;
16577;SDS011;8401;52.528;13.340;2022-11-23T01:48:48;37.67;;;19.33;;
16577;SDS011;8401;52.528;13.340;2022-11-23T01:51:22;40.57;;;20.00;;
16577;SDS011;8401;52.528;13.340;2022-11-23T01:53:53;42.53;;;19.23;;
16577;SDS011;8401;52.528;13.340;2022-11-23T01:56:24;40.83;;;19.20;;
16577;SDS011;8401;52.528;13.340;2022-11-23T01:58:53;32.67;;;18.40;;
16577;SDS011;8401;52.528;13.340;2022-11-23T02:01:22;35.57;;;18.93;;
16577;SDS011;8401;52.528;13.340;2022-11-23T02:03:48;39.80;;;18.73;;
16577;SDS011;8401;52.528;13.340;2022-11-23T02:06:16;34.87;;;18.50;;
16577;SDS011;8401;52.528;13.340;2022-11-23T02:08:43;35.03;;;18.77;;
16577;SDS011;8401;52.528;13.340;2022-11-23T02:11:12;34.93;;;18.80;;
16577;SDS011;8401;52.528;13.340;2022-11-23T02:13:38;35.87;;;18.67;;
16577;SDS011;8401;52.528;13.340;2022-11-23T02:16:07;26.13;;;13.53;;
16577;SDS011;8401;52.528;13.340;2022-11-23T02:18:34;37.40;;;18.93;;
16577;SDS011;8401;52.528;13.340;2022-11-23T02:21:02;34.10;;;17.97;;
16577;SDS011;8401;52.528;13.340;2022-11-23T02:26:34;35.87;;;19.23;;
16577;SDS011;8401;52.528;13.340;2022-11-23T02:29:02;35.33;;;18.47;;
16577;SDS011;8401;52.528;13.340;2022-11-23T02:31:37;34.30;;;19.37;;
16577;SDS011;8401;52.528;13.340;2022-11-23T02:34:03;34.47;;;18.33;;
16577;SDS011;8401;52.528;13.340;2022-11-23T02:39:02;34.00;;;18.00;;
16577;SDS011;8401;52.528;13.340;2022-11-23T02:41:54;32.07;;;17.30;;
16577;SDS011;8401;52.528;13.340;2022-11-23T02:47:14;36.27;;;18.10;;
16577;SDS011;8401;52.528;13.340;2022-11-23T02:49:40;33.97;;;18.87;;
16577;SDS011;8401;52.528;13.340;2022-11-23T02:52:07;37.57;;;19.03;;
16577;SDS011;8401;52.528;13.340;2022-11-23T02:54:33;39.67;;;19.23;;
16577;SDS011;8401;52.528;13.340;2022-11-23T02:56:59;40.73;;;19.20;;
16577;SDS011;8401;52.528;13.340;2022-11-23T02:59:25;35.83;;;19.40;;
16577;SDS011;8401;52.528;13.340;2022-11-23T03:01:51;36.80;;;20.27;;
16577;SDS011;8401;52.528;13.340;2022-11-23T03:04:17;37.33;;;19.70;;
16577;SDS011;8401;52.528;13.340;2022-11-23T03:06:43;38.00;;;20.67;;
16577;SDS011;8401;52.528;13.340;2022-11-23T03:09:09;33.67;;;19.60;;
16577;SDS011;8401;52.528;13.340;2022-11-23T03:11:34;38.50;;;20.57;;
16577;SDS011;8401;52.528;13.340;2022-11-23T03:14:00;37.83;;;19.00;;
16577;SDS011;8401;52.528;13.340;2022-11-23T03:16:26;34.80;;;18.03;;
16577;SDS011;8401;52.528;13.340;2022-11-23T03:18:51;38.03;;;19.47;;
16577;SDS011;8401;52.528;13.340;2022-11-23T03:21:18;31.27;;;18.43;;
16577;SDS011;8401;52.528;13.340;2022-11-23T03:23:44;35.60;;;17.27;;
16577;SDS011;8401;52.528;13.340;2022-11-23T03:26:09;35.60;;;18.20;;
16577;SDS011;8401;52.528;13.340;2022-11-23T03:28:35;32.07;;;16.50;;
16577;SDS011;8401;52.528;13.340;2022-11-23T03:31:01;34.37;;;17.70;;
16577;SDS011;8401;52.528;13.340;2022-11-23T03:33:26;34.10;;;18.80;;
16577;SDS011;8401;52.528;13.340;2022-11-23T03:35:52;34.90;;;17.57;;
16577;SDS011;8401;52.528;13.340;2022-11-23T03:38:18;39.20;;;19.50;;
16577;SDS011;8401;52.528;13.340;2022-11-23T03:40:44;31.23;;;16.73;;
16577;SDS011;8401;52.528;13.340;2022-11-23T03:43:10;30.97;;;17.30;;
16577;SDS011;8401;52.528;13.340;2022-11-23T03:45:37;31.93;;;17.47;;
16577;SDS011;8401;52.528;13.340;2022-11-23T03:48:02;33.43;;;17.03;;
16577;SDS011;8401;52.528;13.340;2022-11-23T03:50:28;32.87;;;17.83;;
16577;SDS011;8401;52.528;13.340;2022-11-23T03:52:54;33.17;;;18.13;;
16577;SDS011;8401;52.528;13.340;2022-11-23T03:55:20;39.53;;;18.87;;
16577;SDS011;8401;52.528;13.340;2022-11-23T03:57:48;35.60;;;17.37;;
16577;SDS011;8401;52.528;13.340;2022-11-23T04:00:14;33.83;;;16.90;;
16577;SDS011;8401;52.528;13.340;2022-11-23T04:02:41;36.07;;;18.23;;
16577;SDS011;8401;52.528;13.340;2022-11-23T04:05:07;34.33;;;17.93;;
16577;SDS011;8401;52.528;13.340;2022-11-23T04:07:34;33.70;;;16.63;;
16577;SDS011;8401;52.528;13.340;2022-11-23T04:10:00;34.83;;;17.83;;
16577;SDS011;8401;52.528;13.340;2022-11-23T04:12:25;36.30;;;17.10;;
16577;SDS011;8401;52.528;13.340;2022-11-23T04:14:51;36.73;;;18.23;;
16577;SDS011;8401;52.528;13.340;2022-11-23T04:17:17;36.00;;;17.87;;
16577;SDS011;8401;52.528;13.340;2022-11-23T04:19:43;33.73;;;17.07;;
16577;SDS011;8401;52.528;13.340;2022-11-23T04:22:09;34.07;;;17.20;;
16577;SDS011;8401;52.528;13.340;2022-11-23T04:24:34;34.90;;;16.80;;
16577;SDS011;8401;52.528;13.340;2022-11-23T04:27:00;35.17;;;17.87;;
16577;SDS011;8401;52.528;13.340;2022-11-23T04:29:26;29.67;;;15.53;;
16577;SDS011;8401;52.528;13.340;2022-11-23T04:31:51;35.00;;;17.30;;
16577;SDS011;8401;52.528;13.340;2022-11-23T04:34:17;35.87;;;17.63;;
16577;SDS011;8401;52.528;13.340;2022-11-23T04:36:43;33.97;;;18.30;;
16577;SDS011;8401;52.528;13.340;2022-11-23T04:39:09;37.57;;;18.87;;
16577;SDS011;8401;52.528;13.340;2022-11-23T04:41:36;35.70;;;18.20;;
16577;SDS011;8401;52.528;13.340;2022-11-23T04:44:02;35.27;;;17.47;;
16577;SDS011;8401;52.528;13.340;2022-11-23T04:46:28;30.87;;;15.33;;
16577;SDS011;8401;52.528;13.340;2022-11-23T04:48:54;34.37;;;17.57;;
16577;SDS011;8401;52.528;13.340;2022-11-23T04:51:20;34.43;;;17.13;;
16577;SDS011;8401;52.528;13.340;2022-11-23T04:53:45;36.90;;;17.93;;
16577;SDS011;8401;52.528;13.340;2022-11-23T04:56:11;32.97;;;15.93;;
16577;SDS011;8401;52.528;13.340;2022-11-23T04:58:37;36.93;;;17.67;;
16577;SDS011;8401;52.528;13.340;2022-11-23T05:01:03;33.93;;;17.67;;
16577;SDS011;8401;52.528;13.340;2022-11-23T05:03:29;32.57;;;16.80;;
16577;SDS011;8401;52.528;13.340;2022-11-23T05:05:58;36.17;;;16.40;;
16577;SDS011;8401;52.528;13.340;2022-11-23T05:08:23;31.13;;;17.23;;
16577;SDS011;8401;52.528;13.340;2022-11-23T05:10:49;30.13;;;16.17;;
16577;SDS011;8401;52.528;13.340;2022-11-23T05:13:15;36.00;;;15.37;;
16577;SDS011;8401;52.528;13.340;2022-11-23T05:15:40;34.43;;;16.93;;
16577;SDS011;8401;52.528;13.340;2022-11-23T05:18:06;31.10;;;16.57;;
16577;SDS011;8401;52.528;13.340;2022-11-23T05:20:32;31.57;;;17.20;;
16577;SDS011;8401;52.528;13.340;2022-11-23T05:22:58;38.37;;;17.37;;
16577;SDS011;8401;52.528;13.340;2022-11-23T05:25:24;32.07;;;17.27;;
16577;SDS011;8401;52.528;13.340;2022-11-23T05:27:50;31.93;;;17.43;;
16577;SDS011;8401;52.528;13.340;2022-11-23T05:30:16;32.73;;;17.60;;
16577;SDS011;8401;52.528;13.340;2022-11-23T05:32:42;31.63;;;17.23;;
16577;SDS011;8401;52.528;13.340;2022-11-23T05:35:08;34.90;;;19.23;;
16577;SDS011;8401;52.528;13.340;2022-11-23T05:37:34;30.53;;;17.40;;
16577;SDS011;8401;52.528;13.340;2022-11-23T05:40:00;29.90;;;17.33;;
16577;SDS011;8401;52.528;13.340;2022-11-23T05:42:26;26.40;;;15.60;;
16577;SDS011;8401;52.528;13.340;2022-11-23T05:44:51;29.73;;;15.67;;
16577;SDS011;8401;52.528;13.340;2022-11-23T05:47:17;32.07;;;16.37;;
16577;SDS011;8401;52.528;13.340;2022-11-23T05:49:43;31.50;;;15.17;;
16577;SDS011;8401;52.528;13.340;2022-11-23T05:52:08;30.37;;;17.27;;
16577;SDS011;8401;52.528;13.340;2022-11-23T05:54:34;32.80;;;17.37;;
16577;SDS011;8401;52.528;13.340;2022-11-23T05:56:59;32.57;;;16.67;;
16577;SDS011;8401;52.528;13.340;2022-11-23T05:59:25;30.63;;;15.47;;
16577;SDS011;8401;52.528;13.340;2022-11-23T06:01:51;30.50;;;16.17;;
16577;SDS011;8401;52.528;13.340;2022-11-23T06:04:16;31.83;;;16.33;;
16577;SDS011;8401;52.528;13.340;2022-11-23T06:06:42;29.60;;;15.80;;
16577;SDS011;8401;52.528;13.340;2022-11-23T06:09:08;31.23;;;15.63;;
16577;SDS011;8401;52.528;13.340;2022-11-23T06:11:33;30.27;;;17.10;;
16577;SDS011;8401;52.528;13.340;2022-11-23T06:13:59;29.87;;;15.03;;
16577;SDS011;8401;52.528;13.340;2022-11-23T06:16:25;30.73;;;16.83;;
16577;SDS011;8401;52.528;13.340;2022-11-23T06:18:51;31.33;;;16.37;;
16577;SDS011;8401;52.528;13.340;2022-11-23T06:21:17;31.57;;;16.67;;
16577;SDS011;8401;52.528;13.340;2022-11-23T06:23:43;28.57;;;15.33;;
16577;SDS011;8401;52.528;13.340;2022-11-23T06:26:10;28.40;;;14.27;;
16577;SDS011;8401;52.528;13.340;2022-11-23T06:28:36;30.73;;;16.87;;
16577;SDS011;8401;52.528;13.340;2022-11-23T06:31:02;30.57;;;14.83;;
16577;SDS011;8401;52.528;13.340;2022-11-23T06:33:29;31.57;;;16.67;;
16577;SDS011;8401;52.528;13.340;2022-11-23T06:35:56;33.43;;;16.13;;
16577;SDS011;8401;52.528;13.340;2022-11-23T06:38:23;28.50;;;15.47;;
16577;SDS011;8401;52.528;13.340;2022-11-23T06:40:49;29.53;;;17.37;;
16577;SDS011;8401;52.528;13.340;2022-11-23T06:43:15;26.43;;;13.43;;
16577;SDS011;8401;52.528;13.340;2022-11-23T06:45:41;30.50;;;15.63;;
16577;SDS011;8401;52.528;13.340;2022-11-23T06:48:07;35.07;;;16.83;;
16577;SDS011;8401;52.528;13.340;2022-11-23T06:50:32;31.30;;;16.90;;
16577;SDS011;8401;52.528;13.340;2022-11-23T06:52:58;31.83;;;17.17;;
16577;SDS011;8401;52.528;13.340;2022-11-23T06:55:24;32.17;;;16.37;;
16577;SDS011;8401;52.528;13.340;2022-11-23T06:57:50;28.97;;;16.03;;
16577;SDS011;8401;52.528;13.340;2022-11-23T07:00:16;31.60;;;16.33;;
16577;SDS011;8401;52.528;13.340;2022-11-23T07:02:43;32.80;;;16.53;;
16577;SDS011;8401;52.528;13.340;2022-11-23T07:05:15;31.83;;;16.10;;
16577;SDS011;8401;52.528;13.340;2022-11-23T07:07:41;35.67;;;17.27;;
16577;SDS011;8401;52.528;13.340;2022-11-23T07:10:06;32.23;;;17.30;;
16577;SDS011;8401;52.528;13.340;2022-11-23T07:12:32;32.70;;;16.57;;
16577;SDS011;8401;52.528;13.340;2022-11-23T07:14:58;30.20;;;16.07;;
16577;SDS011;8401;52.528;13.340;2022-11-23T07:17:23;28.43;;;14.77;;
16577;SDS011;8401;52.528;13.340;2022-11-23T07:19:49;27.37;;;15.47;;
16577;SDS011;8401;52.528;13.340;2022-11-23T07:22:15;32.20;;;15.67;;
16577;SDS011;8401;52.528;13.340;2022-11-23T07:24:41;32.37;;;16.53;;
16577;SDS011;8401;52.528;13.340;2022-11-23T07:27:06;32.37;;;16.30;;
16577;SDS011;8401;52.528;13.340;2022-11-23T07:29:32;28.97;;;15.27;;
16577;SDS011;8401;52.528;13.340;2022-11-23T07:31:58;31.27;;;16.63;;
16577;SDS011;8401;52.528;13.340;2022-11-23T07:34:24;31.70;;;17.17;;
16577;SDS011;8401;52.528;13.340;2022-11-23T07:36:51;29.00;;;15.90;;
16577;SDS011;8401;52.528;13.340;2022-11-23T07:39:17;24.53;;;14.30;;
16577;SDS011;8401;52.528;13.340;2022-11-23T07:41:42;30.53;;;16.53;;
16577;SDS011;8401;52.528;13.340;2022-11-23T07:44:08;32.30;;;15.87;;
16577;SDS011;8401;52.528;13.340;2022-11-23T07:46:34;32.20;;;16.63;;
16577;SDS011;8401;52.528;13.340;2022-11-23T07:48:59;30.73;;;15.63;;
16577;SDS011;8401;52.528;13.340;2022-11-23T07:51:26;32.47;;;17.20;;
16577;SDS011;8401;52.528;13.340;2022-11-23T07:53:52;30.83;;;16.40;;
16577;SDS011;8401;52.528;13.340;2022-11-23T07:56:18;25.87;;;14.63;;
16577;SDS011;8401;52.528;13.340;2022-11-23T07:58:44;28.73;;;15.07;;
16577;SDS011;8401;52.528;13.340;2022-11-23T08:01:13;28.57;;;15.90;;
16577;SDS011;8401;52.528;13.340;2022-11-23T08:03:43;31.97;;;16.80;;
16577;SDS011;8401;52.528;13.340;2022-11-23T08:06:09;32.00;;;16.73;;
16577;SDS011;8401;52.528;13.340;2022-11-23T08:08:35;31.13;;;16.53;;
16577;SDS011;8401;52.528;13.340;2022-11-23T08:11:01;30.10;;;16.63;;
16577;SDS011;8401;52.528;13.340;2022-11-23T08:13:28;30.97;;;16.93;;
16577;SDS011;8401;52.528;13.340;2022-11-23T08:15:55;28.53;;;16.13;;
16577;SDS011;8401;52.528;13.340;2022-11-23T08:18:22;33.87;;;17.27;;
16577;SDS011;8401;52.528;13.340;2022-11-23T08:20:48;29.50;;;16.40;;
16577;SDS011;8401;52.528;13.340;2022-11-23T08:23:14;32.77;;;16.27;;
16577;SDS011;8401;52.528;13.340;2022-11-23T08:25:39;31.87;;;16.00;;
16577;SDS011;8401;52.528;13.340;2022-11-23T08:28:05;32.30;;;15.33;;
16577;SDS011;8401;52.528;13.340;2022-11-23T08:30:31;27.33;;;14.47;;
16577;SDS011;8401;52.528;13.340;2022-11-23T08:33:03;27.77;;;15.77;;
16577;SDS011;8401;52.528;13.340;2022-11-23T08:35:34;29.83;;;15.67;;
16577;SDS011;8401;52.528;13.340;2022-11-23T08:38:04;31.63;;;16.80;;
16577;SDS011;8401;52.528;13.340;2022-11-23T08:40:31;32.47;;;17.63;;
16577;SDS011;8401;52.528;13.340;2022-11-23T08:42:56;28.30;;;16.67;;
16577;SDS011;8401;52.528;13.340;2022-11-23T08:45:22;33.13;;;16.47;;
16577;SDS011;8401;52.528;13.340;2022-11-23T08:47:48;28.60;;;15.13;;
16577;SDS011;8401;52.528;13.340;2022-11-23T08:50:15;29.47;;;16.03;;
16577;SDS011;8401;52.528;13.340;2022-11-23T08:52:41;30.70;;;16.47;;
16577;SDS011;8401;52.528;13.340;2022-11-23T08:55:07;35.83;;;18.27;;
16577;SDS011;8401;52.528;13.340;2022-11-23T08:57:33;27.87;;;16.30;;
16577;SDS011;8401;52.528;13.340;2022-11-23T08:59:59;28.33;;;15.83;;
16577;SDS011;8401;52.528;13.340;2022-11-23T09:02:24;27.83;;;16.13;;
16577;SDS011;8401;52.528;13.340;2022-11-23T09:04:50;26.27;;;14.57;;
16577;SDS011;8401;52.528;13.340;2022-11-23T09:07:16;32.87;;;16.27;;
16577;SDS011;8401;52.528;13.340;2022-11-23T09:09:41;28.97;;;14.73;;
16577;SDS011;8401;52.528;13.340;2022-11-23T09:12:07;30.73;;;15.70;;
16577;SDS011;8401;52.528;13.340;2022-11-23T09:14:33;28.90;;;14.30;;
16577;SDS011;8401;52.528;13.340;2022-11-23T09:17:01;26.33;;;15.27;;
16577;SDS011;8401;52.528;13.340;2022-11-23T09:19:28;25.97;;;14.93;;
16577;SDS011;8401;52.528;13.340;2022-11-23T09:21:53;25.23;;;14.10;;
16577;SDS011;8401;52.528;13.340;2022-11-23T09:24:19;28.27;;;14.90;;
16577;SDS011;8401;52.528;13.340;2022-11-23T09:26:46;24.83;;;15.33;;
16577;SDS011;8401;52.528;13.340;2022-11-23T09:29:12;28.33;;;15.27;;
16577;SDS011;8401;52.528;13.340;2022-11-23T09:31:37;26.73;;;13.70;;
16577;SDS011;8401;52.528;13.340;2022-11-23T09:34:03;25.90;;;14.43;;
16577;SDS011;8401;52.528;13.340;2022-11-23T09:36:29;22.93;;;13.10;;
16577;SDS011;8401;52.528;13.340;2022-11-23T09:38:55;24.23;;;14.40;;
16577;SDS011;8401;52.528;13.340;2022-11-23T09:44:03;24.70;;;14.97;;
16577;SDS011;8401;52.528;13.340;2022-11-23T09:51:55;23.90;;;13.93;;
16577;SDS011;8401;52.528;13.340;2022-11-23T09:56:50;22.37;;;12.87;;
16577;SDS011;8401;52.528;13.340;2022-11-23T10:01:47;25.67;;;14.23;;
16577;SDS011;8401;52.528;13.340;2022-11-23T10:04:14;22.43;;;13.17;;
16577;SDS011;8401;52.528;13.340;2022-11-23T10:06:43;27.20;;;13.53;;
16577;SDS011;8401;52.528;13.340;2022-11-23T10:12:06;23.93;;;13.50;;
16577;SDS011;8401;52.528;13.340;2022-11-23T10:25:55;20.70;;;11.43;;
16577;SDS011;8401;52.528;13.340;2022-11-23T10:28:21;20.27;;;11.90;;
16577;SDS011;8401;52.528;13.340;2022-11-23T10:30:50;20.90;;;12.43;;
16577;SDS011;8401;52.528;13.340;2022-11-23T10:33:26;19.30;;;11.17;;
16577;SDS011;8401;52.528;13.340;2022-11-23T10:35:55;19.83;;;12.03;;
16577;SDS011;8401;52.528;13.340;2022-11-23T10:38:24;20.07;;;12.40;;
16577;SDS011;8401;52.528;13.340;2022-11-23T10:41:07;23.87;;;13.13;;
16577;SDS011;8401;52.528;13.340;2022-11-23T10:48:56;19.37;;;12.67;;
16577;SDS011;8401;52.528;13.340;2022-11-23T10:51:38;21.87;;;12.00;;
16577;SDS011;8401;52.528;13.340;2022-11-23T10:54:05;21.00;;;11.53;;
16577;SDS011;8401;52.528;13.340;2022-11-23T10:56:45;22.47;;;13.03;;
16577;SDS011;8401;52.528;13.340;2022-11-23T10:59:24;24.73;;;13.03;;
16577;SDS011;8401;52.528;13.340;2022-11-23T11:04:45;20.13;;;11.50;;
16577;SDS011;8401;52.528;13.340;2022-11-23T11:07:17;20.03;;;11.97;;
16577;SDS011;8401;52.528;13.340;2022-11-23T11:09:50;21.90;;;12.20;;
16577;SDS011;8401;52.528;13.340;2022-11-23T11:12:23;20.30;;;12.33;;
16577;SDS011;8401;52.528;13.340;2022-11-23T11:17:33;19.57;;;11.37;;
16577;SDS011;8401;52.528;13.340;2022-11-23T11:19:59;18.87;;;10.97;;
16577;SDS011;8401;52.528;13.340;2022-11-23T11:22:45;21.23;;;12.63;;
16577;SDS011;8401;52.528;13.340;2022-11-23T11:25:17;21.83;;;12.60;;
16577;SDS011;8401;52.528;13.340;2022-11-23T11:27:53;21.10;;;12.03;;
16577;SDS011;8401;52.528;13.340;2022-11-23T11:30:21;22.43;;;12.90;;
16577;SDS011;8401;52.528;13.340;2022-11-23T11:32:51;19.20;;;12.27;;
16577;SDS011;8401;52.528;13.340;2022-11-23T11:35:27;19.00;;;12.03;;
16577;SDS011;8401;52.528;13.340;2022-11-23T11:38:03;23.77;;;13.27;;
16577;SDS011;8401;52.528;13.340;2022-11-23T11:40:46;18.27;;;12.10;;
16577;SDS011;8401;52.528;13.340;2022-11-23T11:45:48;21.07;;;13.07;;
16577;SDS011;8401;52.528;13.340;2022-11-23T11:48:18;21.10;;;13.20;;
16577;SDS011;8401;52.528;13.340;2022-11-23T11:51:02;23.07;;;12.53;;
16577;SDS011;8401;52.528;13.340;2022-11-23T11:58:55;22.47;;;13.47;;
16577;SDS011;8401;52.528;13.340;2022-11-23T12:01:42;23.90;;;12.90;;
16577;SDS011;8401;52.528;13.340;2022-11-23T12:09:43;19.40;;;12.30;;
16577;SDS011;8401;52.528;13.340;2022-11-23T12:12:14;19.13;;;11.37;;
16577;SDS011;8401;52.528;13.340;2022-11-23T12:14:42;19.83;;;12.10;;
16577;SDS011;8401;52.528;13.340;2022-11-23T12:20:17;19.60;;;10.83;;
16577;SDS011;8401;52.528;13.340;2022-11-23T12:23:05;19.63;;;12.13;;
16577;SDS011;8401;52.528;13.340;2022-11-23T12:25:43;17.47;;;10.83;;
16577;SDS011;8401;52.528;13.340;2022-11-23T12:28:49;18.10;;;11.37;;
16577;SDS011;8401;52.528;13.340;2022-11-23T12:42:45;21.23;;;11.63;;
16577;SDS011;8401;52.528;13.340;2022-11-23T12:48:04;24.27;;;12.87;;
16577;SDS011;8401;52.528;13.340;2022-11-23T12:50:51;19.53;;;11.13;;
16577;SDS011;8401;52.528;13.340;2022-11-23T12:59:34;20.07;;;11.17;;
16577;SDS011;8401;52.528;13.340;2022-11-23T13:02:14;18.93;;;11.37;;
16577;SDS011;8401;52.528;13.340;2022-11-23T13:07:36;22.73;;;12.80;;
16577;SDS011;8401;52.528;13.340;2022-11-23T13:10:11;20.67;;;11.70;;
16577;SDS011;8401;52.528;13.340;2022-11-23T13:16:34;21.53;;;12.37;;
16577;SDS011;8401;52.528;13.340;2022-11-23T13:21:41;18.77;;;11.23;;
16577;SDS011;8401;52.528;13.340;2022-11-23T13:40:43;16.70;;;11.47;;
16577;SDS011;8401;52.528;13.340;2022-11-23T13:43:17;18.13;;;12.03;;
16577;SDS011;8401;52.528;13.340;2022-11-23T13:45:43;18.23;;;11.57;;
16577;SDS011;8401;52.528;13.340;2022-11-23T13:53:20;18.83;;;11.53;;
16577;SDS011;8401;52.528;13.340;2022-11-23T13:55:46;23.17;;;11.57;;
16577;SDS011;8401;52.528;13.340;2022-11-23T14:00:54;17.97;;;10.87;;
16577;SDS011;8401;52.528;13.340;2022-11-23T14:06:13;19.50;;;11.77;;
16577;SDS011;8401;52.528;13.340;2022-11-23T14:08:43;19.77;;;11.30;;
16577;SDS011;8401;52.528;13.340;2022-11-23T14:11:14;20.80;;;11.53;;
16577;SDS011;8401;52.528;13.340;2022-11-23T14:13:47;18.47;;;10.83;;
16577;SDS011;8401;52.528;13.340;2022-11-23T14:16:23;20.27;;;12.13;;
16577;SDS011;8401;52.528;13.340;2022-11-23T14:19:25;16.63;;;10.93;;
16577;SDS011;8401;52.528;13.340;2022-11-23T14:27:55;19.20;;;11.10;;
16577;SDS011;8401;52.528;13.340;2022-11-23T14:30:42;16.87;;;10.27;;
16577;SDS011;8401;52.528;13.340;2022-11-23T14:33:36;20.57;;;10.97;;
16577;SDS011;8401;52.528;13.340;2022-11-23T14:39:07;18.90;;;11.00;;
16577;SDS011;8401;52.528;13.340;2022-11-23T14:41:53;18.67;;;10.87;;
16577;SDS011;8401;52.528;13.340;2022-11-23T14:44:24;17.67;;;10.83;;
16577;SDS011;8401;52.528;13.340;2022-11-23T14:46:58;17.07;;;10.57;;
16577;SDS011;8401;52.528;13.340;2022-11-23T14:49:25;17.20;;;9.37;;
16577;SDS011;8401;52.528;13.340;2022-11-23T14:51:51;19.23;;;11.03;;
16577;SDS011;8401;52.528;13.340;2022-11-23T14:54:17;18.63;;;11.53;;
16577;SDS011;8401;52.528;13.340;2022-11-23T14:56:44;16.97;;;10.97;;
16577;SDS011;8401;52.528;13.340;2022-11-23T15:01:40;17.90;;;10.90;;
16577;SDS011;8401;52.528;13.340;2022-11-23T15:06:58;17.83;;;11.30;;
16577;SDS011;8401;52.528;13.340;2022-11-23T15:09:52;16.50;;;10.40;;
16577;SDS011;8401;52.528;13.340;2022-11-23T15:12:39;18.80;;;10.80;;
16577;SDS011;8401;52.528;13.340;2022-11-23T15:17:56;22.57;;;11.30;;
16577;SDS011;8401;52.528;13.340;2022-11-23T15:20:33;18.40;;;10.47;;
16577;SDS011;8401;52.528;13.340;2022-11-23T15:23:11;20.23;;;10.90;;
16577;SDS011;8401;52.528;13.340;2022-11-23T15:25:52;22.60;;;12.03;;
16577;SDS011;8401;52.528;13.340;2022-11-23T15:28:20;20.50;;;11.00;;
16577;SDS011;8401;52.528;13.340;2022-11-23T15:30:50;17.93;;;11.10;;
16577;SDS011;8401;52.528;13.340;2022-11-23T15:33:17;20.23;;;10.40;;
16577;SDS011;8401;52.528;13.340;2022-11-23T15:35:44;18.60;;;11.07;;
16577;SDS011;8401;52.528;13.340;2022-11-23T15:38:12;20.60;;;10.97;;
16577;SDS011;8401;52.528;13.340;2022-11-23T15:40:43;19.23;;;10.77;;
16577;SDS011;8401;52.528;13.340;2022-11-23T15:43:14;19.43;;;9.87;;
16577;SDS011;8401;52.528;13.340;2022-11-23T15:48:12;21.87;;;9.47;;
16577;SDS011;8401;52.528;13.340;2022-11-23T15:50:47;17.30;;;10.20;;
16577;SDS011;8401;52.528;13.340;2022-11-23T15:53:21;18.57;;;11.00;;
16577;SDS011;8401;52.528;13.340;2022-11-23T15:55:50;15.57;;;9.57;;
16577;SDS011;8401;52.528;13.340;2022-11-23T15:58:17;15.03;;;9.70;;
16577;SDS011;8401;52.528;13.340;2022-11-23T16:00:54;19.67;;;11.17;;
16577;SDS011;8401;52.528;13.340;2022-11-23T16:03:33;15.30;;;10.53;;
16577;SDS011;8401;52.528;13.340;2022-11-23T16:08:40;18.77;;;11.10;;
16577;SDS011;8401;52.528;13.340;2022-11-23T16:11:17;22.10;;;10.93;;
16577;SDS011;8401;52.528;13.340;2022-11-23T16:13:46;18.03;;;11.80;;
16577;SDS011;8401;52.528;13.340;2022-11-23T16:16:21;18.83;;;11.37;;
16577;SDS011;8401;52.528;13.340;2022-11-23T16:18:48;18.47;;;11.33;;
16577;SDS011;8401;52.528;13.340;2022-11-23T16:21:21;23.27;;;12.00;;
16577;SDS011;8401;52.528;13.340;2022-11-23T16:23:53;19.57;;;11.90;;
16577;SDS011;8401;52.528;13.340;2022-11-23T16:26:20;19.23;;;11.93;;
16577;SDS011;8401;52.528;13.340;2022-11-23T16:28:57;21.27;;;12.20;;
16577;SDS011;8401;52.528;13.340;2022-11-23T16:34:00;18.50;;;10.77;;
16577;SDS011;8401;52.528;13.340;2022-11-23T16:36:26;15.73;;;10.40;;
16577;SDS011;8401;52.528;13.340;2022-11-23T16:38:53;15.80;;;10.80;;
16577;SDS011;8401;52.528;13.340;2022-11-23T16:41:19;20.93;;;11.73;;
16577;SDS011;8401;52.528;13.340;2022-11-23T16:43:47;20.93;;;10.97;;
16577;SDS011;8401;52.528;13.340;2022-11-23T16:46:18;19.60;;;12.37;;
16577;SDS011;8401;52.528;13.340;2022-11-23T16:48:43;19.33;;;11.53;;
16577;SDS011;8401;52.528;13.340;2022-11-23T16:51:09;19.93;;;11.20;;
16577;SDS011;8401;52.528;13.340;2022-11-23T16:53:40;22.20;;;12.33;;